createdAt,value
2018-04-25T00:01:43.852Z,35.80
2018-04-25T00:04:10.844Z,39.10
2018-04-25T00:06:37.158Z,42.23
2018-04-25T00:09:03.513Z,43.33
2018-04-25T00:11:29.757Z,39.57
2018-04-25T00:13:55.991Z,41.50
2018-04-25T00:16:22.252Z,37.97
2018-04-25T00:18:48.502Z,41.10
2018-04-25T00:21:14.809Z,36.50
2018-04-25T00:23:41.744Z,41.90
2018-04-25T00:26:08.591Z,40.13
2018-04-25T00:28:34.979Z,34.90
2018-04-25T00:31:01.214Z,41.00
2018-04-25T00:33:27.588Z,43.03
2018-04-25T00:35:54.572Z,45.23
2018-04-25T00:38:20.860Z,38.87
2018-04-25T00:40:47.185Z,42.97
2018-04-25T00:43:14.239Z,35.70
2018-04-25T00:45:41.317Z,38.33
2018-04-25T00:48:07.677Z,40.23
2018-04-25T00:50:33.942Z,41.17
2018-04-25T00:53:00.387Z,37.63
2018-04-25T00:55:27.491Z,36.80
2018-04-25T00:57:54.633Z,38.23
2018-04-25T01:00:21.022Z,33.73
2018-04-25T01:02:48.065Z,41.37
2018-04-25T01:05:15.213Z,37.23
2018-04-25T01:07:42.319Z,37.20
2018-04-25T01:10:08.603Z,43.47
2018-04-25T01:12:35.632Z,36.60
2018-04-25T01:15:02.044Z,36.40
2018-04-25T01:17:28.299Z,33.53
2018-04-25T01:19:55.367Z,37.87
2018-04-25T01:22:21.634Z,45.67
2018-04-25T01:24:52.827Z,37.40
2018-04-25T01:27:19.877Z,37.93
2018-04-25T01:29:46.945Z,33.50
2018-04-25T01:32:13.295Z,39.50
2018-04-25T01:34:41.261Z,37.63
2018-04-25T01:40:09.946Z,35.93
2018-04-25T01:46:14.195Z,35.87
2018-04-25T01:49:06.420Z,36.80
2018-04-25T01:51:45.761Z,35.70
2018-04-25T01:54:25.053Z,31.93
2018-04-25T01:57:03.605Z,32.07
2018-04-25T01:59:42.775Z,34.20
2018-04-25T02:02:08.942Z,33.63
2018-04-25T02:04:35.918Z,30.13
2018-04-25T02:07:02.229Z,31.40
2018-04-25T02:09:28.688Z,32.30
2018-04-25T02:11:55.739Z,33.10
2018-04-25T02:14:21.958Z,28.90
2018-04-25T02:16:49.044Z,28.93
2018-04-25T02:19:15.322Z,28.80
2018-04-25T02:21:41.643Z,24.80
2018-04-25T02:24:07.935Z,25.43
2018-04-25T02:26:34.193Z,28.43
2018-04-25T02:29:00.567Z,27.73
2018-04-25T02:31:27.537Z,26.77
2018-04-25T02:33:54.244Z,26.80
2018-04-25T02:36:21.288Z,25.90
2018-04-25T02:38:48.296Z,27.93
2018-04-25T02:41:14.519Z,23.83
2018-04-25T02:43:40.881Z,27.20
2018-04-25T02:46:07.084Z,26.77
2018-04-25T02:48:33.315Z,25.30
2018-04-25T02:50:59.549Z,23.60
2018-04-25T02:53:25.817Z,21.90
2018-04-25T02:55:52.136Z,29.47
2018-04-25T02:58:18.390Z,24.43
2018-04-25T03:00:44.604Z,25.93
2018-04-25T03:03:10.847Z,22.93
2018-04-25T03:05:37.056Z,24.83
2018-04-25T03:08:04.228Z,26.57
2018-04-25T03:10:30.610Z,28.70
2018-04-25T03:12:56.893Z,26.37
2018-04-25T03:15:23.256Z,31.37
2018-04-25T03:17:49.560Z,28.40
2018-04-25T03:20:16.257Z,23.27
2018-04-25T03:22:42.533Z,32.20
2018-04-25T03:25:08.809Z,25.40
2018-04-25T03:27:35.089Z,27.83
2018-04-25T03:30:01.316Z,25.93
2018-04-25T03:32:27.578Z,25.97
2018-04-25T03:34:53.809Z,27.60
2018-04-25T03:37:20.108Z,24.50
2018-04-25T03:39:46.365Z,23.70
2018-04-25T03:42:12.816Z,24.90
2018-04-25T03:44:39.123Z,27.73
2018-04-25T03:47:05.391Z,28.53
2018-04-25T03:49:31.763Z,24.60
2018-04-25T03:51:57.981Z,28.23
2018-04-25T03:54:24.959Z,26.30
2018-04-25T03:56:51.209Z,24.17
2018-04-25T03:59:17.949Z,22.30
2018-04-25T04:01:44.193Z,25.63
2018-04-25T04:04:10.425Z,29.93
2018-04-25T04:06:36.728Z,27.87
2018-04-25T04:09:03.233Z,26.83
2018-04-25T04:11:29.556Z,24.90
2018-04-25T04:13:56.544Z,23.87
2018-04-25T04:16:22.832Z,22.23
2018-04-25T04:18:50.374Z,26.13
2018-04-25T04:21:16.614Z,25.67
2018-04-25T04:23:43.651Z,22.93
2018-04-25T04:26:09.873Z,22.60
2018-04-25T04:28:36.256Z,23.23
2018-04-25T04:31:02.560Z,20.53
2018-04-25T04:33:29.524Z,21.63
2018-04-25T04:35:56.570Z,20.40
2018-04-25T04:38:22.819Z,19.70
2018-04-25T04:40:49.098Z,22.33
2018-04-25T04:43:16.560Z,17.33
2018-04-25T04:45:43.530Z,20.20
2018-04-25T04:48:09.796Z,20.73
2018-04-25T04:50:36.059Z,19.73
2018-04-25T04:53:02.325Z,14.60
2018-04-25T04:55:28.628Z,17.90
2018-04-25T04:57:55.629Z,18.43
2018-04-25T05:00:22.049Z,19.83
2018-04-25T05:02:48.285Z,19.17
2018-04-25T05:05:14.761Z,20.10
2018-04-25T05:07:41.118Z,19.00
2018-04-25T05:10:08.064Z,19.10
2018-04-25T05:12:34.329Z,22.27
2018-04-25T05:15:00.583Z,15.13
2018-04-25T05:17:26.811Z,16.73
2018-04-25T05:19:53.128Z,17.00
2018-04-25T05:22:19.357Z,14.53
2018-04-25T05:24:45.703Z,18.43
2018-04-25T05:27:11.867Z,19.73
2018-04-25T05:29:38.816Z,14.40
2018-04-25T05:32:05.348Z,18.53
2018-04-25T05:34:31.557Z,15.90
2018-04-25T05:36:57.937Z,16.03
2018-04-25T05:39:24.197Z,18.30
2018-04-25T05:41:50.469Z,17.50
2018-04-25T05:44:17.449Z,17.97
2018-04-25T05:46:43.872Z,18.20
2018-04-25T05:49:10.112Z,17.20
2018-04-25T05:51:36.368Z,17.77
2018-04-25T05:54:02.656Z,16.90
2018-04-25T05:56:29.705Z,17.83
2018-04-25T05:58:56.012Z,14.10
2018-04-25T06:01:22.986Z,15.13
2018-04-25T06:03:49.326Z,20.10
2018-04-25T06:06:15.569Z,12.87
2018-04-25T06:08:41.783Z,10.87
2018-04-25T06:11:08.110Z,9.47
2018-04-25T06:13:34.401Z,7.67
2018-04-25T06:16:01.451Z,8.70
2018-04-25T06:18:28.487Z,7.60
2018-04-25T06:20:54.853Z,6.90
2018-04-25T06:23:21.121Z,6.73
2018-04-25T06:25:47.320Z,5.97
2018-04-25T06:28:13.655Z,4.53
2018-04-25T06:30:39.932Z,5.63
2018-04-25T06:33:06.266Z,5.70
2018-04-25T06:35:32.530Z,9.80
2018-04-25T06:37:59.506Z,6.40
2018-04-25T06:40:25.789Z,5.83
2018-04-25T06:42:52.837Z,6.87
2018-04-25T06:45:19.887Z,6.23
2018-04-25T06:47:46.904Z,6.77
2018-04-25T06:50:13.226Z,6.50
2018-04-25T06:52:39.593Z,5.43
2018-04-25T06:55:06.576Z,5.90
2018-04-25T06:57:32.811Z,6.37
2018-04-25T06:59:59.108Z,8.53
2018-04-25T07:02:26.150Z,6.23
2018-04-25T07:04:53.145Z,12.37
2018-04-25T07:07:19.452Z,6.30
2018-04-25T07:09:45.750Z,8.37
2018-04-25T07:12:12.008Z,8.57
2018-04-25T07:14:38.708Z,6.90
2018-04-25T07:17:04.961Z,8.13
2018-04-25T07:19:31.958Z,7.23
2018-04-25T07:21:58.313Z,8.77
2018-04-25T07:24:25.879Z,8.43
2018-04-25T07:26:52.183Z,7.67
2018-04-25T07:29:18.435Z,9.73
2018-04-25T07:31:44.766Z,6.27
2018-04-25T07:34:11.108Z,6.63
2018-04-25T07:36:37.348Z,7.03
2018-04-25T07:39:03.657Z,7.33
2018-04-25T07:41:29.968Z,7.43
2018-04-25T07:43:56.246Z,8.43
2018-04-25T07:46:23.300Z,7.17
2018-04-25T07:48:50.354Z,7.47
2018-04-25T07:51:17.436Z,9.30
2018-04-25T07:53:43.652Z,6.70
2018-04-25T07:56:09.882Z,9.67
2018-04-25T07:58:36.658Z,6.63
2018-04-25T08:01:03.010Z,7.97
2018-04-25T08:03:29.977Z,4.20
2018-04-25T08:05:56.302Z,3.73
2018-04-25T08:08:23.247Z,2.90
2018-04-25T08:10:50.353Z,2.73
2018-04-25T08:13:29.197Z,4.80
2018-04-25T08:16:07.817Z,3.97
2018-04-25T08:18:46.382Z,2.90
2018-04-25T08:21:20.964Z,2.93
2018-04-25T08:23:47.246Z,3.07
2018-04-25T08:26:13.578Z,2.60
2018-04-25T08:28:39.890Z,2.23
2018-04-25T08:31:06.189Z,1.60
2018-04-25T08:33:32.554Z,1.50
2018-04-25T08:35:58.837Z,3.40
2018-04-25T08:38:25.168Z,2.37
2018-04-25T08:40:51.612Z,1.37
2018-04-25T08:43:17.942Z,2.67
2018-04-25T08:45:44.252Z,2.00
2018-04-25T08:48:10.673Z,3.90
2018-04-25T08:50:36.988Z,2.27
2018-04-25T08:53:03.310Z,2.90
2018-04-25T08:55:29.592Z,2.00
2018-04-25T08:57:55.896Z,2.37
2018-04-25T09:00:22.240Z,3.70
2018-04-25T09:02:48.481Z,4.00
2018-04-25T09:05:15.075Z,6.83
2018-04-25T09:07:41.393Z,1.63
2018-04-25T09:10:08.395Z,3.90
2018-04-25T09:12:34.656Z,1.87
2018-04-25T09:15:01.641Z,1.67
2018-04-25T09:17:28.005Z,1.87
2018-04-25T09:19:54.777Z,1.37
2018-04-25T09:22:21.828Z,3.93
2018-04-25T09:24:48.872Z,5.57
2018-04-25T09:27:15.969Z,0.80
2018-04-25T09:29:42.215Z,1.90
2018-04-25T09:32:08.446Z,2.20
2018-04-25T09:34:35.069Z,1.27
2018-04-25T09:37:01.307Z,1.63
2018-04-25T09:39:27.616Z,1.00
2018-04-25T09:41:53.928Z,1.40
2018-04-25T09:44:20.194Z,1.30
2018-04-25T09:46:46.450Z,6.93
2018-04-25T09:49:12.792Z,10.40
2018-04-25T09:51:39.791Z,3.53
2018-04-25T09:54:06.205Z,0.93
2018-04-25T09:56:32.597Z,1.87
2018-04-25T09:58:58.835Z,1.43
2018-04-25T10:01:30.154Z,2.50
2018-04-25T10:03:56.485Z,1.57
2018-04-25T10:06:22.749Z,2.53
2018-04-25T10:08:49.010Z,2.63
2018-04-25T10:11:15.252Z,3.33
2018-04-25T10:13:41.480Z,1.40
2018-04-25T10:16:07.744Z,2.97
2018-04-25T10:18:34.101Z,4.20
2018-04-25T10:21:00.473Z,3.43
2018-04-25T10:23:26.724Z,1.27
2018-04-25T10:25:52.986Z,1.10
2018-04-25T10:28:19.289Z,1.53
2018-04-25T10:30:45.718Z,2.30
2018-04-25T10:33:12.169Z,2.00
2018-04-25T10:35:38.478Z,3.07
2018-04-25T10:38:05.193Z,4.20
2018-04-25T10:40:31.679Z,1.03
2018-04-25T10:42:59.519Z,2.70
2018-04-25T10:45:25.882Z,5.00
2018-04-25T10:47:52.143Z,1.67
2018-04-25T10:50:18.404Z,1.37
2018-04-25T10:52:44.820Z,2.80
2018-04-25T10:55:11.098Z,2.40
2018-04-25T10:57:37.482Z,2.70
2018-04-25T11:00:03.755Z,1.70
2018-04-25T11:02:30.088Z,1.67
2018-04-25T11:04:56.353Z,3.93
2018-04-25T11:07:23.415Z,1.50
2018-04-25T11:09:49.764Z,3.00
2018-04-25T11:12:16.018Z,1.53
2018-04-25T11:14:42.266Z,1.60
2018-04-25T11:17:08.622Z,1.63
2018-04-25T11:19:35.654Z,0.87
2018-04-25T11:22:02.758Z,1.17
2018-04-25T11:24:29.057Z,1.53
2018-04-25T11:26:55.361Z,1.80
2018-04-25T11:29:22.344Z,1.47
2018-04-25T11:31:48.735Z,1.80
2018-04-25T11:34:15.844Z,1.47
2018-04-25T11:36:42.131Z,1.27
2018-04-25T11:39:09.163Z,1.57
2018-04-25T11:41:35.487Z,3.23
2018-04-25T11:44:01.834Z,2.20
2018-04-25T11:46:28.079Z,1.43
2018-04-25T11:48:54.351Z,3.13
2018-04-25T11:51:20.582Z,2.00
2018-04-25T11:53:46.967Z,2.80
2018-04-25T11:56:14.009Z,2.17
2018-04-25T11:58:41.021Z,1.40
2018-04-25T12:01:07.276Z,1.70
2018-04-25T12:03:33.645Z,1.50
2018-04-25T12:06:00.055Z,2.30
2018-04-25T12:08:27.125Z,5.23
2018-04-25T12:10:53.378Z,2.80
2018-04-25T12:13:20.175Z,2.90
2018-04-25T12:15:47.214Z,1.83
2018-04-25T12:18:14.359Z,1.70
2018-04-25T12:20:40.791Z,1.50
2018-04-25T12:23:07.129Z,2.23
2018-04-25T12:25:34.117Z,1.87
2018-04-25T12:28:00.390Z,1.60
2018-04-25T12:30:26.649Z,1.90
2018-04-25T12:32:53.862Z,1.23
2018-04-25T12:35:20.099Z,1.93
2018-04-25T12:37:46.441Z,2.60
2018-04-25T12:40:13.102Z,1.40
2018-04-25T12:42:40.080Z,1.30
2018-04-25T12:45:06.457Z,1.73
2018-04-25T12:47:33.100Z,1.83
2018-04-25T12:49:59.370Z,2.37
2018-04-25T12:52:25.648Z,2.50
2018-04-25T12:54:52.085Z,2.20
2018-04-25T12:57:18.452Z,2.43
2018-04-25T12:59:44.767Z,2.00
2018-04-25T13:02:11.792Z,2.30
2018-04-25T13:04:38.069Z,3.60
2018-04-25T13:07:04.387Z,3.17
2018-04-25T13:09:30.634Z,2.53
2018-04-25T13:11:57.030Z,2.10
2018-04-25T13:14:24.025Z,3.10
2018-04-25T13:16:50.495Z,2.20
2018-04-25T13:19:16.825Z,3.27
2018-04-25T13:21:43.100Z,2.50
2018-04-25T13:24:09.476Z,2.50
2018-04-25T13:26:35.841Z,2.53
2018-04-25T13:29:02.374Z,2.70
2018-04-25T13:31:28.901Z,3.80
2018-04-25T13:33:55.261Z,4.87
2018-04-25T13:36:21.696Z,3.70
2018-04-25T13:38:47.948Z,3.77
2018-04-25T13:41:14.379Z,2.73
2018-04-25T13:43:40.665Z,3.23
2018-04-25T13:46:06.989Z,3.23
2018-04-25T13:48:33.270Z,3.00
2018-04-25T13:50:59.645Z,3.70
2018-04-25T13:53:25.964Z,3.30
2018-04-25T13:55:52.226Z,3.40
2018-04-25T13:58:19.287Z,3.13
2018-04-25T14:00:46.337Z,5.50
2018-04-25T14:03:12.629Z,3.37
2018-04-25T14:05:39.077Z,3.33
2018-04-25T14:08:05.371Z,3.00
2018-04-25T14:10:31.621Z,5.03
2018-04-25T14:12:57.965Z,3.07
2018-04-25T14:15:25.401Z,3.20
2018-04-25T14:17:51.639Z,3.40
2018-04-25T14:20:17.974Z,4.37
2018-04-25T14:22:44.320Z,3.47
2018-04-25T14:25:10.711Z,3.47
2018-04-25T14:27:36.958Z,3.83
2018-04-25T14:30:03.246Z,2.70
2018-04-25T14:32:29.818Z,5.23
2018-04-25T14:34:56.080Z,3.03
2018-04-25T14:37:22.323Z,3.20
2018-04-25T14:39:49.308Z,2.97
2018-04-25T14:42:15.654Z,3.17
2018-04-25T14:44:42.062Z,4.50
2018-04-25T14:47:08.346Z,3.00
2018-04-25T14:49:35.483Z,4.13
2018-04-25T14:52:01.890Z,3.50
2018-04-25T14:54:28.221Z,2.50
2018-04-25T14:56:54.573Z,4.50
2018-04-25T14:59:20.829Z,5.57
2018-04-25T15:01:47.093Z,4.93
2018-04-25T15:04:13.655Z,5.33
2018-04-25T15:06:40.069Z,3.70
2018-04-25T15:09:06.324Z,3.63
2018-04-25T15:11:32.626Z,3.33
2018-04-25T15:13:58.986Z,5.97
2018-04-25T15:16:25.305Z,3.60
2018-04-25T15:18:51.608Z,2.43
2018-04-25T15:21:18.573Z,4.67
2018-04-25T15:23:45.183Z,3.70
2018-04-25T15:26:11.533Z,3.17
2018-04-25T15:28:37.799Z,3.00
2018-04-25T15:31:04.836Z,6.57
2018-04-25T15:33:31.195Z,5.13
2018-04-25T15:35:57.469Z,3.17
2018-04-25T15:38:24.476Z,6.03
2018-04-25T15:40:50.788Z,4.27
2018-04-25T15:43:17.108Z,4.70
2018-04-25T15:45:43.363Z,3.60
2018-04-25T15:48:09.631Z,4.37
2018-04-25T15:50:36.648Z,5.03
2018-04-25T15:53:02.976Z,6.00
2018-04-25T15:55:29.202Z,4.77
2018-04-25T15:57:55.603Z,5.37
2018-04-25T16:00:21.861Z,5.37
2018-04-25T16:02:48.129Z,6.10
2018-04-25T16:05:15.290Z,3.70
2018-04-25T16:07:41.958Z,4.83
2018-04-25T16:10:08.796Z,4.77
2018-04-25T16:12:35.193Z,4.30
2018-04-25T16:15:01.589Z,3.57
2018-04-25T16:17:27.888Z,5.03
2018-04-25T16:19:54.230Z,4.47
2018-04-25T16:22:20.627Z,11.40
2018-04-25T16:24:47.061Z,2.90
2018-04-25T16:27:14.139Z,4.67
2018-04-25T16:29:40.458Z,3.60
2018-04-25T16:32:06.889Z,4.53
2018-04-25T16:34:33.353Z,7.30
2018-04-25T16:36:59.746Z,3.77
2018-04-25T16:39:26.763Z,3.17
2018-04-25T16:41:53.051Z,4.80
2018-04-25T16:44:19.285Z,3.60
2018-04-25T16:46:45.612Z,5.70
2018-04-25T16:49:11.891Z,5.90
2018-04-25T16:51:39.000Z,5.83
2018-04-25T16:54:05.374Z,4.23
2018-04-25T16:56:31.661Z,4.87
2018-04-25T16:58:58.005Z,4.27
2018-04-25T17:01:24.313Z,5.53
2018-04-25T17:03:50.666Z,6.73
2018-04-25T17:06:17.075Z,7.17
2018-04-25T17:08:43.329Z,7.20
2018-04-25T17:11:09.754Z,3.80
2018-04-25T17:13:36.145Z,3.70
2018-04-25T17:16:03.246Z,6.00
2018-04-25T17:18:29.496Z,4.33
2018-04-25T17:20:55.873Z,8.90
2018-04-25T17:23:22.249Z,5.33
2018-04-25T17:25:48.559Z,4.23
2018-04-25T17:28:14.948Z,3.73
2018-04-25T17:30:41.941Z,5.07
2018-04-25T17:33:08.404Z,4.33
2018-04-25T17:35:34.700Z,7.30
2018-04-25T17:38:01.015Z,5.40
2018-04-25T17:40:27.294Z,3.70
2018-04-25T17:42:53.630Z,8.90
2018-04-25T17:45:20.277Z,4.37
2018-04-25T17:47:47.387Z,5.60
2018-04-25T17:50:14.178Z,4.60
2018-04-25T17:52:41.197Z,5.93
2018-04-25T17:55:07.529Z,4.97
2018-04-25T17:57:33.870Z,6.57
2018-04-25T18:00:00.926Z,6.43
2018-04-25T18:02:27.171Z,7.43
2018-04-25T18:04:54.511Z,10.73
2018-04-25T18:07:20.986Z,6.30
2018-04-25T18:09:47.316Z,5.83
2018-04-25T18:12:13.676Z,7.77
2018-04-25T18:14:39.956Z,4.80
2018-04-25T18:17:07.021Z,3.83
2018-04-25T18:19:33.626Z,5.53
2018-04-25T18:21:59.858Z,4.80
2018-04-25T18:24:26.102Z,7.23
2018-04-25T18:26:52.566Z,7.83
2018-04-25T18:29:18.982Z,5.00
2018-04-25T18:31:45.449Z,4.90
2018-04-25T18:34:11.802Z,5.50
2018-04-25T18:36:38.874Z,5.37
2018-04-25T18:39:05.956Z,5.30
2018-04-25T18:41:32.329Z,5.00
2018-04-25T18:43:58.678Z,5.07
2018-04-25T18:46:24.944Z,6.53
2018-04-25T18:48:51.256Z,6.37
2018-04-25T18:51:18.725Z,5.53
2018-04-25T18:53:44.985Z,7.20
2018-04-25T18:56:11.245Z,6.57
2018-04-25T18:58:37.573Z,6.00
2018-04-25T19:01:03.925Z,7.43
2018-04-25T19:03:30.595Z,8.20
2018-04-25T19:05:56.876Z,7.77
2018-04-25T19:08:23.122Z,6.70
2018-04-25T19:10:49.578Z,6.47
2018-04-25T19:13:16.633Z,7.53
2018-04-25T19:15:42.890Z,5.83
2018-04-25T19:18:09.213Z,6.20
2018-04-25T19:20:35.560Z,6.97
2018-04-25T19:23:01.881Z,7.03
2018-04-25T19:25:28.296Z,5.73
2018-04-25T19:27:54.658Z,5.67
2018-04-25T19:30:20.941Z,8.93
2018-04-25T19:32:47.945Z,9.07
2018-04-25T19:35:14.464Z,6.87
2018-04-25T19:37:40.749Z,8.87
2018-04-25T19:40:07.760Z,10.07
2018-04-25T19:42:34.144Z,9.83
2018-04-25T19:45:00.426Z,7.70
2018-04-25T19:47:26.762Z,7.77
2018-04-25T19:49:53.104Z,7.80
2018-04-25T19:52:19.379Z,9.03
2018-04-25T19:54:45.739Z,9.77
2018-04-25T19:57:12.024Z,8.10
2018-04-25T19:59:39.019Z,8.33
2018-04-25T20:02:05.331Z,8.60
2018-04-25T20:04:31.730Z,8.20
2018-04-25T20:07:00.076Z,10.17
2018-04-25T20:09:26.299Z,8.17
2018-04-25T20:11:52.733Z,9.60
2018-04-25T20:14:19.073Z,11.10
2018-04-25T20:16:45.430Z,9.63
2018-04-25T20:19:12.423Z,8.77
2018-04-25T20:21:38.758Z,11.10
2018-04-25T20:24:05.073Z,11.80
2018-04-25T20:26:31.420Z,9.17
2018-04-25T20:28:57.668Z,8.80
2018-04-25T20:31:24.171Z,11.20
2018-04-25T20:33:50.410Z,9.50
2018-04-25T20:36:16.799Z,9.20
2018-04-25T20:38:43.118Z,6.63
2018-04-25T20:41:09.403Z,8.13
2018-04-25T20:43:35.770Z,7.77
2018-04-25T20:46:02.088Z,7.70
2018-04-25T20:48:28.363Z,12.30
2018-04-25T20:50:55.409Z,7.60
2018-04-25T20:53:22.489Z,9.37
2018-04-25T20:55:48.928Z,9.73
2018-04-25T20:58:15.178Z,9.10
2018-04-25T21:00:41.485Z,10.37
2018-04-25T21:03:07.775Z,9.30
2018-04-25T21:05:34.788Z,7.60
2018-04-25T21:08:01.085Z,10.30
2018-04-25T21:10:27.388Z,9.30
2018-04-25T21:12:54.473Z,13.90
2018-04-25T21:15:20.873Z,9.50
2018-04-25T21:17:48.570Z,10.30
2018-04-25T21:20:14.960Z,9.03
2018-04-25T21:22:43.460Z,9.90
2018-04-25T21:25:09.766Z,11.67
2018-04-25T21:27:36.080Z,10.43
2018-04-25T21:30:02.435Z,7.50
2018-04-25T21:32:29.590Z,7.87
2018-04-25T21:34:57.408Z,9.60
2018-04-25T21:37:23.704Z,8.17
2018-04-25T21:39:50.118Z,7.63
2018-04-25T21:42:17.446Z,6.87
2018-04-25T21:44:45.068Z,8.23
2018-04-25T21:47:16.397Z,8.13
2018-04-25T21:49:43.605Z,8.50
2018-04-25T21:52:09.992Z,7.27
2018-04-25T21:54:36.369Z,5.73
2018-04-25T21:57:02.612Z,7.00
2018-04-25T21:59:29.005Z,9.63
2018-04-25T22:01:55.287Z,6.33
2018-04-25T22:04:22.005Z,7.90
2018-04-25T22:06:48.307Z,7.73
2018-04-25T22:09:14.719Z,8.60
2018-04-25T22:11:41.283Z,6.67
2018-04-25T22:14:07.474Z,9.30
2018-04-25T22:16:34.516Z,7.07
2018-04-25T22:19:01.646Z,7.40
2018-04-25T22:21:27.932Z,8.40
2018-04-25T22:23:54.198Z,5.77
2018-04-25T22:26:21.056Z,8.70
2018-04-25T22:28:47.412Z,8.77
2018-04-25T22:31:13.661Z,7.30
2018-04-25T22:33:40.096Z,8.50
2018-04-25T22:36:06.502Z,7.73
2018-04-25T22:38:33.513Z,6.90
2018-04-25T22:40:59.885Z,5.43
2018-04-25T22:43:26.301Z,9.07
2018-04-25T22:45:53.332Z,7.90
2018-04-25T22:48:19.639Z,7.40
2018-04-25T22:50:45.966Z,8.57
2018-04-25T22:53:12.324Z,11.00
2018-04-25T22:55:38.579Z,9.17
2018-04-25T22:58:05.653Z,8.73
2018-04-25T23:00:32.033Z,6.40
2018-04-25T23:02:58.395Z,7.97
2018-04-25T23:05:25.467Z,9.10
2018-04-25T23:07:51.848Z,11.07
2018-04-25T23:10:18.229Z,11.43
2018-04-25T23:12:45.285Z,8.97
2018-04-25T23:15:11.556Z,7.23
2018-04-25T23:17:37.839Z,8.57
2018-04-25T23:20:04.315Z,9.50
2018-04-25T23:22:30.604Z,10.07
2018-04-25T23:24:57.063Z,12.57
2018-04-25T23:27:23.314Z,11.60
2018-04-25T23:29:49.630Z,13.23
2018-04-25T23:32:15.985Z,15.33
2018-04-25T23:34:42.246Z,13.73
2018-04-25T23:37:09.251Z,13.20
2018-04-25T23:39:35.566Z,13.37
2018-04-25T23:42:01.896Z,13.60
2018-04-25T23:44:28.150Z,15.73
2018-04-25T23:46:54.380Z,19.77
2018-04-25T23:49:21.365Z,17.40
2018-04-25T23:54:21.248Z,15.50
2018-04-25T23:56:48.269Z,15.90
2018-04-25T23:59:14.560Z,13.77
